New Haven, CT

2:11 AM EDT on August 28, 2015 (GMT -0400)
Yale, Kline Geology Lab | | Change Station
CLOSE
Current Station
Personal Weather Station
Location: New Haven, CT
Elevation: 39 ft
Nearby Weather Stations

Elev 39 ft 41.32 °N, 72.92 °W | Updated 9 minutes ago

Clear
Clear
64.5 °F
Feels Like 64.5 °F
N
0.0
Wind Variable Wind from North
Gusts 0.4 mph

Today
High -- | Low -- °F
--% Chance of Precip.
Yesterday
High -- | Low -- °F
Precip. -- in
6:13 AM 7:31 PM
Waxing Gibbous, 97% visible
Pressure 30.12 in
Visibility 10.0 miles
Clouds Clear
Dew Point 57 °F
Humidity 76%
Rainfall Not available.
Snow Depth Not available.
UV 0 out of 12
Pollen 10.00 out of 12
Air Quality Not available.
Flu Activity Not available.
METAR KHVN 280553Z AUTO 36003KT 10SM CLR 17/12 A3012 RMK AO2 SLP198 T01670122 10228 20167 50005
Pressure 30.12 in
Visibility 10.0 miles
Clouds Clear
Dew Point 57 °F
Humidity 76%
Rainfall Not available.
Snow Depth Not available.
UV 0 out of 12
Pollen 10.00 out of 12
Air Quality Not available.
Flu Activity Not available.
METAR KHVN 280553Z AUTO 36003KT 10SM CLR 17/12 A3012 RMK AO2 SLP198 T01670122 10228 20167 50005

10-Day Weather Forecast

×

Almanac

Astronomy

Aug. 28, 2015 Rise Set
Actual Time
Civil Twilight
Nautical Twilight
Astronomical Twilight
Moon
Length of Visible Light
Length of Day
Tomorrow will be .
, % of the Moon is Illuminated

Today's Extremes

State Highs State Lows

Community

WunderPhotos

Upload Photos

1,850,341 photos uploaded!

WunderBlogs® & News

Nearby

Air Quality

  Air Quality AQ Index Pollutant
Not available.

Snow Depth

Station Depth Elevation

Earthquake Activity

City Distance Mag. Time & Date
Minimum magnitude displayed is 2.5.

Coastal Water Temperatures

Place Temperature

Stations

Nearby Weather Stations

Station Location Temp. Windchill Dew Point Humidity Wind Precip. Elev Updated Type